Flight Track Log - Related Links

Times and Time Zones

All times are in EDT time to prevent confusion due to time zone crossing. See the ASQ4518 flight status page for this flight to view local times or setup timezone preferences in your user account.

Time Position Orientation Groundspeed Altitude Reporting Facility
EDT Latitude Longitude Course Direction KTS MPH feet Rate Location/Type
Sun 12:27:51 PM 41.3919 -81.8783 242° Southwest 164 189 1,700  Level Cleveland Center
Sun 12:28:33 PM 41.3767 -81.9225 245° Southwest 179 206 3,200 1,604 Climbing Cleveland Center
Sun 12:29:32 PM 41.3592 -81.9911 251° West 228 262 4,400 1,563 Climbing Cleveland Center
Sun 12:30:00 PM 41.2802 -82.2227 250° West  Level FlightAware Approximate
Sun 12:30:32 PM 41.3311 -82.0653 243° Southwest 259 298 6,300  Level Cleveland Center
Sun 12:31:00 PM 41.2449 -82.3503 248° West  Level FlightAware Approximate
Sun 12:31:32 PM 41.3031 -82.1503 246° West 259 298 8,600  Level Cleveland Center
Sun 12:32:00 PM 41.2071 -82.4765 248° West  Level FlightAware Approximate
Sun 12:32:32 PM 41.2747 -82.2408 247° West 259 298 10,400  Level Cleveland Center
Sun 12:33:00 PM 41.1584 -82.5956 242° Southwest  Level FlightAware Approximate
Sun 12:33:32 PM 41.2397 -82.3422 245° Southwest 264 304 11,200  Level Cleveland Center
Sun 12:34:32 PM 41.2006 -82.4542 245° Southwest 306 352 11,900 950 Climbing Cleveland Center
Sun 12:35:32 PM 41.1608 -82.5689 245° Southwest 335 386 13,100 1,150 Climbing Cleveland Center
Sun 12:36:32 PM 41.1214 -82.6836 245° Southwest 348 400 14,200 1,150 Climbing Cleveland Center
Sun 12:37:32 PM 41.0942 -82.8067 254° West 353 406 15,400 1,150 Climbing Cleveland Center
Sun 12:38:32 PM 41.0769 -82.9300 260° West 347 399 16,500 1,150 Climbing Cleveland Center
Sun 12:39:32 PM 41.0597 -83.0533 260° West 347 399 17,700 1,150 Climbing Cleveland Center
Sun 12:40:32 PM 41.0444 -83.1767 261° West 347 399 18,800 1,100 Climbing Cleveland Center
Sun 12:41:32 PM 41.0272 -83.2969 259° West 347 399 19,900 1,128 Climbing Cleveland Center
Sun 12:42:29 PM 41.0086 -83.4022 257° West 342 394 21,000 1,160 Climbing Indianapolis Center
Sun 12:43:31 PM 40.9878 -83.5403 259° West 342 394 22,200 1,113 Climbing Indianapolis Center
Sun 12:44:33 PM 40.9689 -83.6642 259° West 343 395 23,300 1,113 Climbing Indianapolis Center
Sun 12:45:35 PM 40.9431 -83.7836 254° West 341 392 24,500 1,122 Climbing Indianapolis Center
Sun 12:46:36 PM 40.8972 -83.8911 241° Southwest 336 387 25,600 976 Climbing Indianapolis Center
Sun 12:47:38 PM 40.8514 -83.9994 241° Southwest 337 388 26,500 774 Climbing Indianapolis Center
Sun 12:48:40 PM 40.8036 -84.1106 240° Southwest 346 398 27,200 774 Climbing Indianapolis Center
Sun 12:49:42 PM 40.7631 -84.2269 245° Southwest 350 403 28,100 927 Climbing Indianapolis Center
Sun 12:50:43 PM 40.7433 -84.3700 260° West 341 392 29,100 976 Climbing Indianapolis Center
Sun 12:51:45 PM 40.7247 -84.4933 259° West 340 391 30,100 919 Climbing Indianapolis Center
Sun 12:52:47 PM 40.7072 -84.6164 259° West 340 391 31,000 919 Climbing Indianapolis Center
Sun 12:53:49 PM 40.6892 -84.7381 259° West 337 388 32,000 927 Climbing Indianapolis Center
Sun 12:54:50 PM 40.6708 -84.8603 259° West 336 387 32,900 878 Climbing Indianapolis Center
Sun 12:55:52 PM 40.6539 -84.9711 259° West 334 384 33,800 968 Climbing Indianapolis Center
Sun 12:56:54 PM 40.6322 -85.1125 259° West 330 380 34,900 581 Climbing Indianapolis Center
Sun 12:57:56 PM 40.6150 -85.2325 259° West 336 387 35,000 49 Climbing Indianapolis Center
Sun 12:58:57 PM 40.5942 -85.3592 258° West 354 407 35,000  Level Indianapolis Center
Sun 12:59:59 PM 40.5744 -85.4917 259° West 367 422 35,000  Level Indianapolis Center
Sun 01:01:01 PM 40.5528 -85.6286 258° West 382 440 35,000 387 Level Indianapolis Center
Sun 01:02:03 PM 40.5333 -85.7644 259° West 382 440 35,800 488 Climbing Indianapolis Center
Sun 01:03:04 PM 40.5178 -85.9258 263° West 375 432 36,000 156 Climbing Indianapolis Center
Sun 01:03:20 PM 40.5153 -85.9508 263° West 374 430 36,000  Level Chicago Center
Sun 01:04:22 PM 40.5014 -86.0867 262° West 376 433 36,000  Level Chicago Center
Sun 01:05:24 PM 40.4892 -86.2189 263° West 369 425 36,000  Level Chicago Center
Sun 01:06:26 PM 40.4744 -86.3514 262° West 368 423 36,000  Level Chicago Center
Sun 01:07:28 PM 40.4581 -86.5089 262° West 365 420 36,000  Level Chicago Center
Sun 01:08:30 PM 40.4444 -86.6381 262° West 361 415 36,000  Level Chicago Center
Sun 01:09:33 PM 40.4308 -86.7678 262° West 362 417 36,000  Level Chicago Center
Sun 01:10:34 PM 40.4167 -86.8961 262° West 359 413 36,000  Level Chicago Center
Sun 01:11:36 PM 40.4033 -87.0247 262° West 357 411 36,000  Level Chicago Center
Sun 01:12:38 PM 40.3889 -87.1522 262° West 357 411 36,000  Level Chicago Center
Sun 01:13:40 PM 40.3717 -87.3050 262° West 355 409 36,000  Level Chicago Center
Sun 01:14:42 PM 40.3575 -87.4333 262° West 357 411 36,000  Level Chicago Center
Sun 01:15:44 PM 40.3417 -87.5708 261° West 358 412 36,000  Level Chicago Center
Sun 01:16:46 PM 40.3267 -87.7025 262° West 364 419 36,000  Level Chicago Center
Sun 01:17:48 PM 40.3111 -87.8344 261° West 366 421 36,000  Level Chicago Center
Sun 01:18:50 PM 40.2961 -87.9661 262° West 368 423 36,000  Level Chicago Center
Sun 01:19:52 PM 40.2800 -88.0986 261° West 369 425 36,000  Level Chicago Center
Sun 01:20:54 PM 40.2619 -88.2583 262° West 372 428 36,000  Level Chicago Center
Sun 01:21:56 PM 40.2456 -88.3903 261° West 369 425 36,000  Level Chicago Center
Sun 01:24:01 PM 40.2114 -88.6656 261° West 375 432 36,000  Level Chicago Center
Sun 01:25:03 PM 40.1950 -88.7994 261° West 374 430 36,000  Level Chicago Center
Sun 01:26:05 PM 40.1775 -88.9331 260° West 371 427 36,000  Level Chicago Center
Sun 01:27:07 PM 40.1603 -89.0678 261° West 374 430 36,000  Level Chicago Center
Sun 01:28:09 PM 40.1425 -89.2039 260° West 378 435 36,000  Level Chicago Center
Sun 01:29:11 PM 40.1219 -89.3664 261° West 376 433 36,000  Level Chicago Center
Sun 01:29:39 PM 40.1139 -89.4214 259° West 377 434 36,000  Level Kansas City Center
Sun 01:30:39 PM 40.0961 -89.5572 260° West 376 433 36,000  Level Kansas City Center
Sun 01:31:44 PM 40.0786 -89.6947 261° West 380 437 36,000  Level Kansas City Center
Sun 01:32:44 PM 40.0600 -89.8303 260° West 380 437 36,000  Level Kansas City Center
Sun 01:33:48 PM 40.0414 -89.9667 260° West 380 437 36,000  Level Kansas City Center
Sun 01:34:48 PM 40.0228 -90.1011 260° West 378 435 36,000  Level Kansas City Center
Sun 01:35:51 PM 40.0003 -90.2639 260° West 378 435 36,000  Level Kansas City Center
Sun 01:36:52 PM 39.9817 -90.3989 260° West 378 435 36,000  Level Kansas City Center
Sun 01:37:55 PM 39.9633 -90.5344 260° West 379 436 36,000  Level Kansas City Center
Sun 01:38:56 PM 39.9433 -90.6675 259° West 376 433 36,000  Level Kansas City Center
Sun 01:40:00 PM 39.9247 -90.7997 260° West 373 429 36,000  Level Kansas City Center
Sun 01:41:00 PM 39.9061 -90.9328 260° West 373 429 36,000  Level Kansas City Center
Sun 01:42:04 PM 39.8864 -91.0667 259° West 372 428 36,000  Level Kansas City Center
Sun 01:43:04 PM 39.8672 -91.1972 259° West 370 426 36,000  Level Kansas City Center
Sun 01:44:06 PM 39.8433 -91.3522 259° West 369 425 36,000  Level Kansas City Center
Sun 01:45:09 PM 39.8231 -91.4853 259° West 372 428 36,000  Level Kansas City Center
Sun 01:46:09 PM 39.8036 -91.6156 259° West 371 427 36,000  Level Kansas City Center
Sun 01:47:13 PM 39.7667 -91.7394 249° West 373 429 36,000  Level Kansas City Center
Sun 01:48:14 PM 39.6889 -91.8358 224° Southwest 384 442 36,000  Level Kansas City Center
Sun 01:49:17 PM 39.5939 -91.9497 223° Southwest 387 445 36,000  Level Kansas City Center
Sun 01:50:19 PM 39.5158 -92.0447 223° Southwest 388 447 36,000  Level Kansas City Center
Sun 01:51:22 PM 39.4375 -92.1378 223° Southwest 385 443 36,000  Level Kansas City Center
Sun 01:52:22 PM 39.3575 -92.2328 223° Southwest 389 448 36,000  Level Kansas City Center
Sun 01:53:25 PM 39.2781 -92.3294 223° Southwest 393 452 36,000  Level Kansas City Center
Sun 01:54:26 PM 39.1878 -92.4353 222° Southwest 394 453 36,000  Level Kansas City Center
Sun 01:55:29 PM 39.1075 -92.5300 222° Southwest 393 452 36,000  Level Kansas City Center
Sun 01:56:30 PM 39.0258 -92.6264 223° Southwest 395 455 36,000  Level Kansas City Center
Sun 01:57:33 PM 38.9289 -92.7408 223° Southwest 395 455 36,000  Level Kansas City Center
Sun 01:58:34 PM 38.8483 -92.8361 223° Southwest 395 455 36,000  Level Kansas City Center
Sun 01:59:38 PM 38.7669 -92.9306 222° Southwest 395 455 36,000  Level Kansas City Center
Sun 02:00:41 PM 38.6864 -93.0247 222° Southwest 393 452 36,000  Level Kansas City Center
Sun 02:01:42 PM 38.6058 -93.1186 222° Southwest 394 453 36,000  Level Kansas City Center
Sun 02:02:43 PM 38.5244 -93.2128 222° Southwest 394 453 36,000  Level Kansas City Center
Sun 02:03:46 PM 38.4261 -93.3261 222° Southwest 396 456 36,000  Level Kansas City Center
Sun 02:04:48 PM 38.3442 -93.4208 222° Southwest 397 457 36,000  Level Kansas City Center
Sun 02:05:51 PM 38.2628 -93.5144 222° Southwest 397 457 36,000  Level Kansas City Center
Sun 02:06:51 PM 38.1800 -93.6094 222° Southwest 399 459 36,000  Level Kansas City Center
Sun 02:07:55 PM 38.0953 -93.7044 221° Southwest 404 465 36,000  Level Kansas City Center
Sun 02:08:56 PM 38.0131 -93.7975 222° Southwest 401 461 36,000  Level Kansas City Center
Sun 02:09:57 PM 37.9139 -93.9111 222° Southwest 401 461 36,000  Level Kansas City Center
Sun 02:11:00 PM 37.8297 -94.0039 221° Southwest 402 463 36,000  Level Kansas City Center
Sun 02:12:03 PM 37.7467 -94.0986 222° Southwest 402 463 36,000  Level Kansas City Center
Sun 02:13:04 PM 37.6661 -94.1869 221° Southwest 403 464 36,000  Level Kansas City Center
Sun 02:14:08 PM 37.5658 -94.2994 222° Southwest 403 464 36,000  Level Kansas City Center
Sun 02:15:09 PM 37.4817 -94.3939 222° Southwest 405 466 36,000  Level Kansas City Center
Sun 02:16:10 PM 37.3978 -94.4886 222° Southwest 404 465 36,000  Level Kansas City Center
Sun 02:17:13 PM 37.3128 -94.5819 221° Southwest 404 465 36,000  Level Kansas City Center
Sun 02:18:14 PM 37.2275 -94.6753 221° Southwest 405 466 36,000  Level Kansas City Center
Sun 02:19:18 PM 37.1425 -94.7689 221° Southwest 405 466 36,000  Level Kansas City Center
Sun 02:20:18 PM 37.0572 -94.8625 221° Southwest 407 468 36,000  Level Kansas City Center
Sun 02:21:22 PM 36.9550 -94.9739 221° Southwest 406 467 36,000  Level Kansas City Center
Sun 02:22:23 PM 36.8686 -95.0669 221° Southwest 408 470 36,000  Level Kansas City Center
Sun 02:23:24 PM 36.7828 -95.1606 221° Southwest 409 471 36,000  Level Kansas City Center
Sun 02:24:27 PM 36.6969 -95.2536 221° Southwest 409 471 36,000  Level Kansas City Center
Sun 02:25:28 PM 36.6106 -95.3467 221° Southwest 411 473 36,000  Level Kansas City Center
Sun 02:26:29 PM 36.5250 -95.4383 221° Southwest 411 473 36,000  Level Kansas City Center
Sun 02:27:33 PM 36.4175 -95.5494 220° Southwest 415 478 36,000  Level Kansas City Center
Sun 02:28:34 PM 36.3306 -95.6456 222° Southwest 421 484 36,000  Level Kansas City Center
Sun 02:29:37 PM 36.2414 -95.7400 221° Southwest 421 484 36,000  Level Kansas City Center
Sun 02:30:38 PM 36.1319 -95.7678 192° South 439 505 36,000  Level Kansas City Center
Sun 02:31:41 PM 35.9869 -95.7192 165° South 451 519 36,000  Level Kansas City Center
Sun 02:32:42 PM 35.8656 -95.6789 165° South 452 520 36,000  Level Kansas City Center
Sun 02:33:44 PM 35.7447 -95.6403 165° South 451 519 36,000 -242 Level Kansas City Center
Sun 02:34:46 PM 35.6233 -95.5994 165° South 451 519 35,500 -850 Descending Kansas City Center
Sun 02:35:37 PM 35.5094 -95.5647 166° South 453 521 34,400 -1,189 Descending Fort Worth Center
Sun 02:36:37 PM 35.3942 -95.5267 165° South 447 514 33,300 -700 Descending Fort Worth Center
Sun 02:37:37 PM 35.2914 -95.4958 166° South 436 502 33,000 -150 Descending Fort Worth Center
Sun 02:38:37 PM 35.1742 -95.4606 166° South 436 502 33,000  Level Fort Worth Center
Sun 02:39:37 PM 35.0589 -95.4225 165° South 436 502 33,000  Level Fort Worth Center
Sun 02:40:37 PM 34.9414 -95.3847 165° South 436 502 33,000  Level Fort Worth Center
Sun 02:41:37 PM 34.8242 -95.3647 172° South 436 502 33,000  Level Fort Worth Center
Sun 02:42:37 PM 34.7186 -95.4153 201° Southwest 400 460 33,000  Level Fort Worth Center
Sun 02:43:37 PM 34.6197 -95.4883 211° Southwest 400 460 33,000  Level Fort Worth Center
Sun 02:44:37 PM 34.5144 -95.5611 210° Southwest 417 480 33,000  Level Fort Worth Center
Sun 02:45:37 PM 34.3986 -95.6367 208° Southwest 430 495 33,000 -550 Level Fort Worth Center
Sun 02:46:37 PM 34.2953 -95.7092 210° Southwest 435 501 31,900 -2,050 Descending Fort Worth Center
Sun 02:47:37 PM 34.1919 -95.7789 209° Southwest 435 501 28,900 -2,750 Descending Fort Worth Center
Sun 02:48:37 PM 34.1031 -95.8383 209° Southwest 441 507 26,400 -3,000 Descending Fort Worth Center
Sun 02:49:37 PM 33.9872 -95.9181 210° Southwest 446 513 22,900 -2,950 Descending Fort Worth Center
Sun 02:50:37 PM 33.8836 -95.9850 208° Southwest 438 504 20,500 -2,550 Descending Fort Worth Center
Sun 02:51:37 PM 33.7717 -96.0592 209° Southwest 426 490 17,800 -2,400 Descending Fort Worth Center
Sun 02:52:37 PM 33.6764 -96.1231 209° Southwest 410 472 15,700 -2,350 Descending Fort Worth Center
Sun 02:53:37 PM 33.5831 -96.1842 209° Southwest 391 450 13,100 -2,100 Descending Fort Worth Center
Sun 02:54:37 PM 33.4894 -96.2353 204° Southwest 385 443 11,500 -1,100 Descending Fort Worth Center
Sun 02:55:37 PM 33.4172 -96.3036 218° Southwest 354 407 10,900 -300 Descending Fort Worth Center
Sun 02:56:37 PM 33.3614 -96.3764 227° Southwest 314 361 10,900 -350 Level Fort Worth Center
Sun 02:57:37 PM 33.3308 -96.4611 247° West 286 329 10,200 -850 Descending Fort Worth Center
Sun 02:58:30 PM 33.3000 -96.5333 243° Southwest 283 326 9,300 -1,071 Descending Dallas / Fort Worth TRACON
Sun 02:59:29 PM 33.2667 -96.6167 244° Southwest 271 312 8,200 -1,109 Descending Dallas / Fort Worth TRACON
Sun 03:00:29 PM 33.2333 -96.6833 239° Southwest 250 288 7,100 -1,150 Descending Dallas / Fort Worth TRACON
Sun 03:01:29 PM 33.2000 -96.7667 244° Southwest 264 304 5,900 -1,041 Descending Dallas / Fort Worth TRACON
Sun 03:02:30 PM 33.1667 -96.8333 239° Southwest 225 259 5,000 -550 Descending Dallas / Fort Worth TRACON
Sun 03:03:29 PM 33.1333 -96.9000 239° Southwest 234 269 4,800 -706 Descending Dallas / Fort Worth TRACON
Sun 03:04:29 PM 33.0833 -96.9500 220° Southwest 230 265 3,600 -1,250 Descending Dallas / Fort Worth TRACON
Sun 03:05:29 PM 33.0500 -97.0000 232° Southwest 227 261 2,300 -1,300 Descending Dallas / Fort Worth TRACON

Login

Don't have an account? Register now (free) for customized features, flight alerts, and more!